Time,TemperatureF,DewpointF,PressureIn,WindDirection,WindDirectionDegrees,WindSpeedMPH,WindSpeedGustMPH,Humidity,HourlyPrecipIn,Conditions,Clouds,dailyrainin,SoftwareType,DateUTC
2013-02-20 00:02:00,40.0,26.0,-100.00,NW,305,7.0,15.0,58,-99.99,,,-99.99,,2013-02-20 05:02:00,
2013-02-20 00:12:00,40.0,26.0,-100.00,NW,305,7.0,15.0,58,-99.99,,,-99.99,,2013-02-20 05:12:00,
2013-02-20 00:32:00,38.0,24.0,-100.00,NW,315,4.0,20.0,57,-99.99,,,-99.99,,2013-02-20 05:32:00,
2013-02-20 00:43:00,38.0,20.0,-100.00,NW,320,7.0,22.0,48,-99.99,,,-99.99,,2013-02-20 05:43:00,
2013-02-20 00:52:00,38.0,20.0,-100.00,NW,320,7.0,22.0,48,-99.99,,,-99.99,,2013-02-20 05:52:00,
2013-02-20 01:11:00,37.0,19.0,-100.00,NW,305,8.0,17.0,48,-99.99,,,-99.99,,2013-02-20 06:11:00,
2013-02-20 01:22:00,37.0,19.0,-100.00,NW,305,8.0,17.0,48,-99.99,,,-99.99,,2013-02-20 06:22:00,
2013-02-20 01:32:00,37.0,19.0,-100.00,WNW,295,5.0,16.0,48,-99.99,,,-99.99,,2013-02-20 06:32:00,
2013-02-20 01:42:00,36.0,18.0,-100.00,NW,310,5.0,11.0,48,-99.99,,,-99.99,,2013-02-20 06:42:00,
2013-02-20 01:52:00,36.0,18.0,-100.00,NW,310,5.0,11.0,48,-99.99,,,-99.99,,2013-02-20 06:52:00,
2013-02-20 02:02:00,36.0,18.0,-100.00,NW,315,6.0,19.0,46,-99.99,,,-99.99,,2013-02-20 07:02:00,
2013-02-20 02:11:00,36.0,18.0,-100.00,WNW,295,7.0,12.0,47,-99.99,,,-99.99,,2013-02-20 07:11:00,
2013-02-20 02:21:00,36.0,18.0,-100.00,WNW,295,7.0,12.0,47,-99.99,,,-99.99,,2013-02-20 07:21:00,
2013-02-20 02:32:00,35.0,17.0,-100.00,West,280,4.0,14.0,47,-99.99,,,-99.99,,2013-02-20 07:32:00,
2013-02-20 02:42:00,35.0,17.0,-100.00,WNW,300,5.0,13.0,47,-99.99,,,-99.99,,2013-02-20 07:42:00,
2013-02-20 02:52:00,35.0,17.0,-100.00,WNW,300,5.0,13.0,47,-99.99,,,-99.99,,2013-02-20 07:52:00,
2013-02-20 03:05:00,35.0,16.0,-100.00,WNW,285,4.0,18.0,45,-99.99,,,-99.99,,2013-02-20 08:05:00,
2013-02-20 03:11:00,35.0,13.0,-100.00,NW,310,10.0,23.0,40,-99.99,,,-99.99,,2013-02-20 08:11:00,
2013-02-20 03:22:00,35.0,13.0,-100.00,NW,310,10.0,23.0,40,-99.99,,,-99.99,,2013-02-20 08:22:00,
2013-02-20 03:42:00,34.0,10.0,-100.00,North,350,7.0,19.0,36,-99.99,,,-99.99,,2013-02-20 08:42:00,
2013-02-20 03:52:00,34.0,10.0,-100.00,North,350,7.0,19.0,36,-99.99,,,-99.99,,2013-02-20 08:52:00,
2013-02-20 04:02:00,33.0,9.0,-100.00,WNW,300,4.0,16.0,36,-99.99,,,-99.99,,2013-02-20 09:02:00,
2013-02-20 04:11:00,33.0,9.0,-100.00,WNW,300,6.0,16.0,37,-99.99,,,-99.99,,2013-02-20 09:11:00,
2013-02-20 04:21:00,33.0,9.0,-100.00,WNW,300,6.0,16.0,37,-99.99,,,-99.99,,2013-02-20 09:21:00,
2013-02-20 04:32:00,32.0,9.0,-100.00,NW,305,5.0,14.0,38,-99.99,,,-99.99,,2013-02-20 09:32:00,
2013-02-20 04:42:00,32.0,9.0,-100.00,NW,320,4.0,15.0,38,-99.99,,,-99.99,,2013-02-20 09:42:00,
2013-02-20 04:51:00,32.0,9.0,-100.00,NW,320,4.0,15.0,38,-99.99,,,-99.99,,2013-02-20 09:51:00,
2013-02-20 05:01:00,31.0,10.0,-100.00,NW,320,5.0,12.0,40,-99.99,,,-99.99,,2013-02-20 10:01:00,
2013-02-20 05:32:00,31.0,11.0,-100.00,NW,315,4.0,13.0,42,-99.99,,,-99.99,,2013-02-20 10:32:00,
2013-02-20 05:42:00,31.0,11.0,-100.00,NW,310,4.0,12.0,42,-99.99,,,-99.99,,2013-02-20 10:42:00,
2013-02-20 05:51:00,31.0,11.0,-100.00,NW,310,4.0,12.0,42,-99.99,,,-99.99,,2013-02-20 10:51:00,
2013-02-20 06:02:00,31.0,11.0,-100.00,NW,315,2.0,10.0,42,-99.99,,,-99.99,,2013-02-20 11:02:00,
2013-02-20 06:11:00,31.0,11.0,-100.00,NW,325,4.0,20.0,43,-99.99,,,-99.99,,2013-02-20 11:11:00,
2013-02-20 06:22:00,31.0,11.0,-100.00,NW,325,4.0,20.0,43,-99.99,,,-99.99,,2013-02-20 11:22:00,
2013-02-20 06:32:00,32.0,12.0,-100.00,NW,320,7.0,17.0,43,-99.99,,,-99.99,,2013-02-20 11:32:00,
2013-02-20 06:42:00,32.0,12.0,-100.00,NW,325,5.0,18.0,43,-99.99,,,-99.99,,2013-02-20 11:42:00,
2013-02-20 06:52:00,32.0,12.0,-100.00,NW,325,5.0,18.0,43,-99.99,,,-99.99,,2013-02-20 11:52:00,
2013-02-20 07:02:00,31.0,12.0,-100.00,NW,305,11.0,18.0,43,-99.99,,,-99.99,,2013-02-20 12:02:00,
2013-02-20 07:12:00,31.0,8.0,-100.00,West,280,8.0,24.0,38,-99.99,,,-99.99,,2013-02-20 12:12:00,
2013-02-20 07:22:00,31.0,8.0,-100.00,West,280,8.0,24.0,38,-99.99,,,-99.99,,2013-02-20 12:22:00,
2013-02-20 07:32:00,30.0,7.0,-100.00,NNW,340,10.0,17.0,37,-99.99,,,-99.99,,2013-02-20 12:32:00,
2013-02-20 07:42:00,30.0,6.0,-100.00,NW,310,9.0,27.0,35,-99.99,,,-99.99,,2013-02-20 12:42:00,
2013-02-20 07:52:00,30.0,6.0,-100.00,NW,310,9.0,27.0,35,-99.99,,,-99.99,,2013-02-20 12:52:00,
2013-02-20 08:02:00,30.0,6.0,-100.00,NW,320,7.0,18.0,35,-99.99,,,-99.99,,2013-02-20 13:02:00,
2013-02-20 08:12:00,30.0,6.0,-100.00,NW,315,9.0,22.0,35,-99.99,,,-99.99,,2013-02-20 13:12:00,
2013-02-20 08:22:00,30.0,6.0,-100.00,NW,315,9.0,22.0,35,-99.99,,,-99.99,,2013-02-20 13:22:00,
2013-02-20 08:32:00,30.0,5.0,-100.00,NNW,340,8.0,22.0,35,-99.99,,,-99.99,,2013-02-20 13:32:00,
2013-02-20 08:42:00,30.0,6.0,-100.00,NNW,335,10.0,23.0,35,-99.99,,,-99.99,,2013-02-20 13:42:00,
2013-02-20 08:51:00,30.0,6.0,-100.00,NNW,335,10.0,23.0,35,-99.99,,,-99.99,,2013-02-20 13:51:00,
2013-02-20 09:01:00,30.0,6.0,-100.00,NW,305,6.0,19.0,35,-99.99,,,-99.99,,2013-02-20 14:01:00,
2013-02-20 09:11:00,30.0,6.0,-100.00,NW,325,9.0,27.0,35,-99.99,,,-99.99,,2013-02-20 14:11:00,
2013-02-20 09:22:00,30.0,6.0,-100.00,NW,325,9.0,27.0,35,-99.99,,,-99.99,,2013-02-20 14:22:00,
2013-02-20 09:32:00,31.0,6.0,-100.00,NW,305,9.0,26.0,35,-99.99,,,-99.99,,2013-02-20 14:32:00,
2013-02-20 09:42:00,31.0,6.0,-100.00,NW,310,7.0,18.0,35,-99.99,,,-99.99,,2013-02-20 14:42:00,
2013-02-20 09:52:00,31.0,6.0,-100.00,NW,310,7.0,18.0,35,-99.99,,,-99.99,,2013-02-20 14:52:00,
2013-02-20 10:02:00,30.0,6.0,-100.00,NW,315,9.0,23.0,35,-99.99,,,-99.99,,2013-02-20 15:02:00,
2013-02-20 10:12:00,31.0,7.0,-100.00,NW,315,7.0,17.0,36,-99.99,,,-99.99,,2013-02-20 15:12:00,
2013-02-20 10:32:00,32.0,8.0,-100.00,NW,310,8.0,18.0,36,-99.99,,,-99.99,,2013-02-20 15:32:00,
2013-02-20 10:42:00,31.0,7.0,-100.00,North,0,8.0,18.0,36,-99.99,,,-99.99,,2013-02-20 15:42:00,
2013-02-20 11:01:00,31.0,7.0,-100.00,WNW,285,9.0,18.0,35,-99.99,,,-99.99,,2013-02-20 16:01:00,
2013-02-20 11:12:00,31.0,7.0,-100.00,NW,305,6.0,25.0,35,-99.99,,,-99.99,,2013-02-20 16:12:00,
2013-02-20 11:32:00,32.0,7.0,-100.00,WNW,300,9.0,20.0,34,-99.99,,,-99.99,,2013-02-20 16:32:00,
2013-02-20 11:42:00,31.0,5.0,-100.00,NNW,340,6.0,22.0,32,-99.99,,,-99.99,,2013-02-20 16:42:00,
2013-02-20 12:11:00,31.0,4.0,-100.00,WNW,300,10.0,23.0,31,-99.99,,,-99.99,,2013-02-20 17:11:00,
2013-02-20 12:32:00,32.0,4.0,-100.00,WNW,295,9.0,20.0,30,-99.99,,,-99.99,,2013-02-20 17:32:00,
2013-02-20 12:42:00,32.0,4.0,-100.00,WNW,295,7.0,26.0,30,-99.99,,,-99.99,,2013-02-20 17:42:00,
2013-02-20 12:52:00,32.0,4.0,-100.00,WNW,295,7.0,26.0,30,-99.99,,,-99.99,,2013-02-20 17:52:00,
2013-02-20 13:02:00,32.0,4.0,-100.00,WNW,300,9.0,17.0,29,-99.99,,,-99.99,,2013-02-20 18:02:00,
2013-02-20 13:11:00,33.0,4.0,-100.00,WNW,290,9.0,24.0,28,-99.99,,,-99.99,,2013-02-20 18:11:00,
2013-02-20 13:22:00,33.0,4.0,-100.00,WNW,290,9.0,24.0,28,-99.99,,,-99.99,,2013-02-20 18:22:00,
2013-02-20 13:32:00,33.0,4.0,-100.00,WNW,285,7.0,22.0,28,-99.99,,,-99.99,,2013-02-20 18:32:00,
2013-02-20 13:42:00,34.0,4.0,-100.00,NW,305,6.0,17.0,28,-99.99,,,-99.99,,2013-02-20 18:42:00,
2013-02-20 13:52:00,34.0,4.0,-100.00,NW,305,6.0,17.0,28,-99.99,,,-99.99,,2013-02-20 18:52:00,
2013-02-20 14:12:00,33.0,3.0,-100.00,WNW,295,6.0,18.0,28,-99.99,,,-99.99,,2013-02-20 19:12:00,
2013-02-20 14:21:00,33.0,3.0,-100.00,WNW,295,6.0,18.0,28,-99.99,,,-99.99,,2013-02-20 19:21:00,
2013-02-20 14:32:00,33.0,3.0,-100.00,NW,320,11.0,22.0,28,-99.99,,,-99.99,,2013-02-20 19:32:00,
2013-02-20 14:41:00,33.0,3.0,-100.00,WNW,295,6.0,24.0,28,-99.99,,,-99.99,,2013-02-20 19:41:00,
2013-02-20 14:52:00,33.0,3.0,-100.00,WNW,295,6.0,24.0,28,-99.99,,,-99.99,,2013-02-20 19:52:00,
2013-02-20 15:11:00,32.0,2.0,-100.00,NNW,340,11.0,27.0,28,-99.99,,,-99.99,,2013-02-20 20:11:00,
2013-02-20 15:21:00,32.0,2.0,-100.00,NNW,340,11.0,27.0,28,-99.99,,,-99.99,,2013-02-20 20:21:00,
2013-02-20 15:31:00,32.0,2.0,-100.00,North,5,9.0,23.0,28,-99.99,,,-99.99,,2013-02-20 20:31:00,
2013-02-20 16:32:00,31.0,1.0,-100.00,NNW,330,9.0,23.0,27,-99.99,,,-99.99,,2013-02-20 21:32:00,
2013-02-20 16:52:00,30.0,1.0,-100.00,NW,320,8.0,20.0,28,-99.99,,,-99.99,,2013-02-20 21:52:00,
2013-02-20 17:02:00,30.0,1.0,-100.00,NW,320,8.0,20.0,28,-99.99,,,-99.99,,2013-02-20 22:02:00,
2013-02-20 17:11:00,30.0,1.0,-100.00,WNW,285,11.0,22.0,28,-99.99,,,-99.99,,2013-02-20 22:11:00,
2013-02-20 17:21:00,30.0,1.0,-100.00,WNW,285,11.0,22.0,28,-99.99,,,-99.99,,2013-02-20 22:21:00,
2013-02-20 17:31:00,30.0,1.0,-100.00,WNW,295,5.0,22.0,29,-99.99,,,-99.99,,2013-02-20 22:31:00,
2013-02-20 17:43:00,29.0,1.0,-100.00,NW,315,11.0,21.0,29,-99.99,,,-99.99,,2013-02-20 22:43:00,
2013-02-20 17:51:00,29.0,1.0,-100.00,NW,315,11.0,21.0,29,-99.99,,,-99.99,,2013-02-20 22:51:00,
2013-02-20 18:01:00,29.0,1.0,-100.00,NW,310,8.0,22.0,29,-99.99,,,-99.99,,2013-02-20 23:01:00,
2013-02-20 18:32:00,29.0,1.0,-100.00,NW,320,7.0,15.0,30,-99.99,,,-99.99,,2013-02-20 23:32:00,
2013-02-20 18:42:00,28.0,1.0,-100.00,NW,315,8.0,23.0,30,-99.99,,,-99.99,,2013-02-20 23:42:00,
2013-02-20 18:52:00,28.0,1.0,-100.00,NW,315,8.0,23.0,30,-99.99,,,-99.99,,2013-02-20 23:52:00,
2013-02-20 19:32:00,28.0,1.0,-100.00,WNW,295,6.0,24.0,31,-99.99,,,-99.99,,2013-02-21 00:32:00,
2013-02-20 19:42:00,28.0,1.0,-100.00,NW,315,8.0,18.0,31,-99.99,,,-99.99,,2013-02-21 00:42:00,
2013-02-20 19:52:00,28.0,1.0,-100.00,NW,315,8.0,18.0,31,-99.99,,,-99.99,,2013-02-21 00:52:00,
2013-02-20 20:01:00,28.0,1.0,-100.00,NW,310,9.0,18.0,31,-99.99,,,-99.99,,2013-02-21 01:01:00,
2013-02-20 20:12:00,28.0,1.0,-100.00,NW,305,9.0,15.0,31,-99.99,,,-99.99,,2013-02-21 01:12:00,
2013-02-20 20:21:00,28.0,1.0,-100.00,NW,305,9.0,15.0,31,-99.99,,,-99.99,,2013-02-21 01:21:00,
2013-02-20 20:32:00,28.0,2.0,-100.00,North,355,7.0,23.0,32,-99.99,,,-99.99,,2013-02-21 01:32:00,
2013-02-20 20:42:00,27.0,2.0,-100.00,NNW,330,9.0,21.0,32,-99.99,,,-99.99,,2013-02-21 01:42:00,
2013-02-20 20:52:00,27.0,2.0,-100.00,NNW,330,9.0,21.0,32,-99.99,,,-99.99,,2013-02-21 01:52:00,
2013-02-20 21:02:00,27.0,1.0,-100.00,WNW,300,9.0,18.0,32,-99.99,,,-99.99,,2013-02-21 02:02:00,
2013-02-20 21:11:00,27.0,1.0,-100.00,NW,310,6.0,21.0,32,-99.99,,,-99.99,,2013-02-21 02:11:00,
2013-02-20 21:22:00,27.0,1.0,-100.00,NW,310,6.0,21.0,32,-99.99,,,-99.99,,2013-02-21 02:22:00,
2013-02-20 21:32:00,27.0,1.0,-100.00,WNW,300,11.0,22.0,32,-99.99,,,-99.99,,2013-02-21 02:32:00,
2013-02-20 21:42:00,27.0,1.0,-100.00,WNW,300,11.0,22.0,32,-99.99,,,-99.99,,2013-02-21 02:42:00,
2013-02-20 22:02:00,27.0,1.0,-100.00,NW,310,7.0,22.0,32,-99.99,,,-99.99,,2013-02-21 03:02:00,
2013-02-20 22:12:00,27.0,1.0,-100.00,NW,310,9.0,17.0,32,-99.99,,,-99.99,,2013-02-21 03:12:00,
2013-02-20 22:21:00,27.0,1.0,-100.00,NW,310,9.0,17.0,32,-99.99,,,-99.99,,2013-02-21 03:21:00,
2013-02-20 22:32:00,27.0,1.0,-100.00,North,0,8.0,19.0,32,-99.99,,,-99.99,,2013-02-21 03:32:00,
2013-02-20 22:42:00,26.0,1.0,-100.00,NW,305,7.0,17.0,32,-99.99,,,-99.99,,2013-02-21 03:42:00,
2013-02-20 22:51:00,26.0,1.0,-100.00,NW,305,7.0,17.0,32,-99.99,,,-99.99,,2013-02-21 03:51:00,
2013-02-20 23:01:00,26.0,1.0,-100.00,WNW,300,5.0,16.0,33,-99.99,,,-99.99,,2013-02-21 04:01:00,
2013-02-20 23:11:00,26.0,1.0,-100.00,WNW,300,6.0,23.0,33,-99.99,,,-99.99,,2013-02-21 04:11:00,
2013-02-20 23:22:00,26.0,1.0,-100.00,WNW,300,6.0,23.0,33,-99.99,,,-99.99,,2013-02-21 04:22:00,
2013-02-20 23:32:00,26.0,1.0,-100.00,WNW,300,6.0,15.0,33,-99.99,,,-99.99,,2013-02-21 04:32:00,
2013-02-20 23:42:00,26.0,1.0,-100.00,WNW,300,7.0,19.0,33,-99.99,,,-99.99,,2013-02-21 04:42:00,
2013-02-20 23:52:00,26.0,1.0,-100.00,NW,310,9.0,17.0,34,-99.99,,,-99.99,,2013-02-21 04:52:00,